Time;durP1;ratioP1;P1;durP2;ratioP2;P2;SDS_P1;SDS_P2;PMS_P1;PMS_P2;Temp;Humidity;BMP_temperature;BMP_pressure;BME280_temperature;BME280_humidity;BME280_pressure;Samples;Min_cycle;Max_cycle;Signal;HPM_P1;HPM_P2
2021/10/14 00:01:14;;;;;;;4.75;3.67;;;15.30;79.60;;;;;;5068189;28;20024;-75
2021/10/14 00:03:41;;;;;;;3.95;3.53;;;15.20;79.40;;;;;;5072586;28;20379;-76
2021/10/14 00:06:08;;;;;;;5.10;4.38;;;15.20;79.50;;;;;;5056643;28;20047;-77
2021/10/14 00:08:34;;;;;;;4.30;3.90;;;15.20;79.50;;;;;;5046773;28;20061;-76
2021/10/14 00:11:00;;;;;;;4.35;3.90;;;15.20;79.50;;;;;;5047831;28;20174;-74
2021/10/14 00:13:26;;;;;;;3.95;3.63;;;15.20;79.50;;;;;;5046410;28;20543;-75
2021/10/14 00:15:52;;;;;;;5.18;3.75;;;15.20;79.60;;;;;;5047836;28;20025;-75
2021/10/14 00:18:18;;;;;;;3.97;3.58;;;15.20;79.60;;;;;;5050678;28;20029;-76
2021/10/14 00:20:44;;;;;;;4.10;3.80;;;15.20;79.60;;;;;;5066774;28;20116;-75
2021/10/14 00:23:10;;;;;;;3.80;3.50;;;15.10;79.50;;;;;;5066414;28;20601;-76
2021/10/14 00:25:36;;;;;;;4.57;4.18;;;15.10;79.50;;;;;;5066577;28;20056;-75
2021/10/14 00:28:03;;;;;;;5.43;4.43;;;15.10;79.60;;;;;;5064124;28;20082;-75
2021/10/14 00:30:29;;;;;;;3.80;3.50;;;15.10;79.60;;;;;;5046465;28;20037;-76
2021/10/14 00:32:55;;;;;;;4.93;4.43;;;15.10;79.70;;;;;;5046607;28;20032;-75
2021/10/14 00:35:21;;;;;;;5.40;4.47;;;15.10;79.70;;;;;;5045661;28;20075;-76
2021/10/14 00:37:47;;;;;;;4.82;4.43;;;15.10;79.70;;;;;;5046961;28;20044;-76
2021/10/14 00:40:15;;;;;;;4.47;4.15;;;15.10;79.80;;;;;;5065560;28;20036;-76
2021/10/14 00:42:45;;;;;;;4.43;4.00;;;15.10;79.80;;;;;;5066390;28;20116;-75
2021/10/14 00:45:12;;;;;;;4.97;4.10;;;15.10;79.80;;;;;;5065948;28;20086;-75
2021/10/14 00:47:39;;;;;;;5.60;4.32;;;15.10;79.80;;;;;;5066713;28;20528;-75
2021/10/14 00:50:06;;;;;;;3.70;3.40;;;15.10;79.80;;;;;;5047591;28;20029;-74
2021/10/14 00:52:34;;;;;;;4.38;3.70;;;15.10;79.90;;;;;;5046195;28;20553;-75
2021/10/14 00:55:02;;;;;;;6.93;4.68;;;15.10;79.90;;;;;;5052423;28;20475;-77
2021/10/14 00:57:29;;;;;;;4.32;3.92;;;15.10;79.90;;;;;;5054743;28;20048;-77
2021/10/14 00:59:55;;;;;;;4.70;4.30;;;15.10;79.90;;;;;;5042072;28;20032;-75
2021/10/14 01:02:21;;;;;;;4.97;4.40;;;15.10;80.00;;;;;;5046076;28;20057;-77
2021/10/14 01:04:47;;;;;;;4.20;3.90;;;15.10;80.00;;;;;;5044252;28;20174;-76
2021/10/14 01:07:13;;;;;;;4.68;4.18;;;15.00;79.80;;;;;;5046450;28;20047;-76
2021/10/14 01:09:40;;;;;;;4.80;4.40;;;15.10;80.00;;;;;;5045853;28;20040;-76
2021/10/14 01:12:07;;;;;;;4.60;4.20;;;15.00;79.90;;;;;;5046484;28;20098;-77
2021/10/14 01:14:34;;;;;;;4.38;3.97;;;15.10;80.00;;;;;;5044808;28;20033;-75
2021/10/14 01:17:00;;;;;;;5.15;4.55;;;15.00;79.80;;;;;;5046803;28;20029;-75
2021/10/14 01:19:26;;;;;;;5.20;4.53;;;15.00;79.80;;;;;;5046571;28;20033;-75
2021/10/14 01:21:53;;;;;;;4.50;4.03;;;15.00;79.90;;;;;;5045329;28;20115;-75
2021/10/14 01:24:19;;;;;;;5.22;4.75;;;15.00;79.90;;;;;;5053369;28;20056;-75
2021/10/14 01:26:45;;;;;;;5.03;4.60;;;15.00;79.90;;;;;;5065855;28;20029;-75
2021/10/14 01:29:12;;;;;;;4.28;3.88;;;15.00;79.90;;;;;;5053820;28;20032;-75
2021/10/14 01:31:38;;;;;;;4.53;4.13;;;15.00;79.90;;;;;;5041800;23;20058;-75
2021/10/14 01:34:04;;;;;;;7.13;5.65;;;15.00;80.00;;;;;;5006674;28;20140;-76
2021/10/14 01:36:31;;;;;;;4.95;4.55;;;15.00;80.00;;;;;;5007740;28;20030;-75
2021/10/14 01:38:57;;;;;;;4.70;4.30;;;15.00;80.00;;;;;;5007749;28;20036;-75
2021/10/14 01:41:23;;;;;;;4.18;3.78;;;15.00;80.00;;;;;;5007710;28;20038;-75
2021/10/14 01:43:49;;;;;;;5.25;4.75;;;15.00;80.00;;;;;;5022786;28;20498;-75
2021/10/14 01:46:15;;;;;;;5.63;4.80;;;15.00;80.10;;;;;;5019747;23;20061;-83
2021/10/14 01:48:41;;;;;;;5.45;4.88;;;14.90;79.90;;;;;;5002891;28;20393;-84
2021/10/14 01:51:10;;;;;;;4.80;4.40;;;15.00;80.10;;;;;;5009880;28;20042;-84
2021/10/14 01:53:36;;;;;;;5.47;4.97;;;15.00;80.10;;;;;;5010893;28;20060;-82
2021/10/14 01:56:03;;;;;;;5.07;4.60;;;14.90;79.90;;;;;;5026288;28;20092;-82
2021/10/14 01:58:28;;;;;;;5.75;5.25;;;14.90;80.00;;;;;;5010921;28;20080;-82
2021/10/14 02:00:54;;;;;;;4.63;4.20;;;14.90;80.00;;;;;;5010808;28;20449;-83
2021/10/14 02:03:20;;;;;;;5.13;4.72;;;14.90;80.00;;;;;;5011212;28;20033;-83
2021/10/14 02:05:46;;;;;;;5.25;4.75;;;14.90;80.00;;;;;;5009454;28;20385;-82
2021/10/14 02:08:13;;;;;;;5.72;5.03;;;14.90;80.00;;;;;;5010846;28;20389;-79
2021/10/14 02:10:40;;;;;;;7.35;5.63;;;15.00;80.20;;;;;;5010975;28;20066;-82
2021/10/14 02:13:06;;;;;;;5.32;4.65;;;14.90;80.10;;;;;;5011161;28;20129;-81
2021/10/14 02:15:32;;;;;;;5.35;4.85;;;14.90;80.00;;;;;;5014755;28;20492;-82
2021/10/14 02:17:58;;;;;;;6.07;5.30;;;14.90;80.00;;;;;;5014540;28;20038;-83
2021/10/14 02:20:25;;;;;;;5.43;4.93;;;14.90;80.10;;;;;;5012875;28;20491;-81
2021/10/14 02:22:51;;;;;;;5.35;4.90;;;14.90;80.10;;;;;;5013266;28;20026;-84
2021/10/14 02:25:18;;;;;;;5.45;4.95;;;14.90;80.10;;;;;;5014450;28;20099;-82
2021/10/14 02:27:44;;;;;;;5.28;4.78;;;14.90;80.10;;;;;;5015025;28;20033;-82
2021/10/14 02:30:12;;;;;;;6.13;4.63;;;14.90;80.10;;;;;;5014327;28;20034;-81
2021/10/14 02:32:38;;;;;;;5.85;5.00;;;14.90;80.10;;;;;;5014442;28;20176;-82
2021/10/14 02:35:06;;;;;;;4.95;4.45;;;14.90;80.10;;;;;;5014077;28;20112;-83
2021/10/14 02:37:32;;;;;;;5.28;4.78;;;14.90;80.10;;;;;;5014307;28;20030;-82
2021/10/14 02:39:58;;;;;;;5.85;5.35;;;14.90;80.20;;;;;;5014065;28;20135;-83
2021/10/14 02:42:24;;;;;;;5.63;5.07;;;14.80;80.00;;;;;;5014481;28;20029;-82
2021/10/14 02:44:50;;;;;;;5.47;4.80;;;14.80;80.00;;;;;;5014118;28;20603;-81
2021/10/14 02:47:16;;;;;;;5.55;4.75;;;14.80;80.10;;;;;;5013563;28;20046;-82
2021/10/14 02:49:42;;;;;;;8.55;5.82;;;14.80;80.10;;;;;;5013978;28;20454;-82
2021/10/14 02:52:08;;;;;;;5.30;4.90;;;14.80;80.10;;;;;;5013643;28;20045;-83
2021/10/14 02:54:34;;;;;;;5.90;5.30;;;14.80;80.10;;;;;;5013822;28;20038;-79
2021/10/14 02:57:00;;;;;;;6.30;5.20;;;14.80;80.60;;;;;;5012555;28;20038;-81
2021/10/14 02:59:26;;;;;;;4.85;4.40;;;14.80;80.20;;;;;;5014274;28;20528;-82
2021/10/14 03:01:52;;;;;;;6.20;5.60;;;14.80;80.20;;;;;;5014104;28;20124;-82
2021/10/14 03:04:18;;;;;;;5.20;4.80;;;14.80;80.20;;;;;;5013466;28;20621;-81
2021/10/14 03:06:44;;;;;;;9.32;6.32;;;14.80;80.20;;;;;;5012826;28;20033;-82
2021/10/14 03:09:10;;;;;;;5.55;4.78;;;14.80;80.20;;;;;;5013255;28;20061;-82
2021/10/14 03:11:36;;;;;;;5.82;5.32;;;14.80;80.20;;;;;;5029029;28;20038;-81
2021/10/14 03:14:02;;;;;;;5.70;5.20;;;14.80;80.30;;;;;;5013464;28;20032;-81
2021/10/14 03:16:28;;;;;;;6.25;5.65;;;14.80;80.30;;;;;;5013451;28;20030;-82
2021/10/14 03:18:55;;;;;;;5.43;4.93;;;14.80;80.30;;;;;;5012921;28;20552;-81
2021/10/14 03:21:22;;;;;;;6.20;5.05;;;14.80;80.30;;;;;;5011361;28;20054;-82
2021/10/14 03:23:50;;;;;;;6.35;5.60;;;14.80;80.30;;;;;;5013208;28;20272;-81
2021/10/14 03:26:16;;;;;;;5.65;5.15;;;14.80;80.30;;;;;;5013409;28;20034;-83
2021/10/14 03:28:42;;;;;;;5.22;4.72;;;14.80;80.30;;;;;;5013942;28;20061;-81
2021/10/14 03:31:09;;;;;;;5.47;5.05;;;14.80;80.30;;;;;;5013961;28;20069;-82
2021/10/14 03:33:35;;;;;;;6.38;5.78;;;14.80;80.30;;;;;;4995690;28;20022;-82
2021/10/14 03:36:01;;;;;;;6.10;5.50;;;14.80;80.80;;;;;;5012081;28;20065;-83
2021/10/14 03:38:27;;;;;;;5.53;5.03;;;14.80;80.30;;;;;;5012056;28;20036;-86
2021/10/14 03:40:53;;;;;;;6.05;5.53;;;14.70;80.10;;;;;;5014231;28;20401;-85
2021/10/14 03:43:19;;;;;;;6.20;5.60;;;14.80;80.30;;;;;;5014371;28;20482;-88
2021/10/14 03:45:45;;;;;;;4.97;4.47;;;14.70;80.10;;;;;;5013107;28;20034;-85
2021/10/14 03:48:11;;;;;;;5.80;5.20;;;14.70;80.10;;;;;;5013296;28;20041;-84
2021/10/14 03:50:37;;;;;;;5.57;4.80;;;14.70;80.10;;;;;;5012599;28;20061;-85
2021/10/14 03:53:03;;;;;;;5.68;4.40;;;14.70;80.10;;;;;;5013365;28;20037;-82
2021/10/14 03:55:29;;;;;;;6.38;5.00;;;14.60;79.90;;;;;;5012916;28;20034;-84
2021/10/14 03:57:55;;;;;;;5.28;4.88;;;14.70;80.10;;;;;;5013469;28;20397;-81
2021/10/14 04:00:22;;;;;;;5.22;4.80;;;14.60;80.00;;;;;;5013548;28;20034;-81
2021/10/14 04:02:48;;;;;;;7.93;5.10;;;14.60;80.10;;;;;;5028092;28;20080;-85
2021/10/14 04:05:14;;;;;;;5.65;5.15;;;14.60;80.20;;;;;;5012755;28;20034;-80
2021/10/14 04:07:40;;;;;;;6.00;5.40;;;14.60;80.20;;;;;;5013093;28;20525;-80
2021/10/14 04:10:06;;;;;;;5.30;4.80;;;14.60;80.20;;;;;;5013412;28;20466;-83
2021/10/14 04:12:33;;;;;;;7.90;5.40;;;14.50;80.00;;;;;;5012864;28;20038;-81
2021/10/14 04:14:59;;;;;;;5.63;5.15;;;14.60;80.20;;;;;;5027720;28;20034;-83
2021/10/14 04:17:25;;;;;;;6.03;5.00;;;14.50;80.00;;;;;;5013221;28;20116;-85
2021/10/14 04:19:50;;;;;;;6.68;6.07;;;14.50;80.00;;;;;;5012360;28;20034;-83
2021/10/14 04:22:17;;;;;;;5.63;5.15;;;14.50;80.10;;;;;;5012280;28;20034;-82
2021/10/14 04:24:45;;;;;;;5.35;4.85;;;14.50;80.10;;;;;;5011764;28;20424;-82
2021/10/14 04:27:11;;;;;;;5.45;5.00;;;14.50;80.10;;;;;;5012418;28;20092;-84
2021/10/14 04:29:37;;;;;;;6.40;5.50;;;14.50;80.10;;;;;;5012643;28;20033;-82
2021/10/14 04:32:07;;;;;;;5.30;4.85;;;14.50;80.70;;;;;;5012730;28;20138;-83
2021/10/14 04:34:35;;;;;;;5.43;4.82;;;14.50;80.10;;;;;;5012262;28;20030;-85
2021/10/14 04:37:06;;;;;;;5.22;4.75;;;14.50;80.10;;;;;;5011980;28;20249;-82
2021/10/14 04:39:36;;;;;;;6.05;5.45;;;14.40;80.00;;;;;;5005089;28;20037;-79
2021/10/14 04:42:04;;;;;;;6.22;5.13;;;14.40;80.00;;;;;;4971874;28;20070;-81
2021/10/14 04:44:30;;;;;;;5.68;4.97;;;14.40;80.00;;;;;;4972814;28;20515;-83
2021/10/14 04:46:56;;;;;;;5.35;4.93;;;14.40;80.00;;;;;;4972817;28;20054;-83
2021/10/14 04:49:22;;;;;;;5.30;4.80;;;14.40;80.00;;;;;;4982172;28;20027;-82
2021/10/14 04:51:49;;;;;;;4.90;4.50;;;14.40;80.00;;;;;;4988627;28;20042;-79
2021/10/14 04:54:14;;;;;;;5.50;4.93;;;14.40;80.00;;;;;;4988570;28;20034;-81
2021/10/14 04:56:40;;;;;;;6.28;5.68;;;14.40;80.10;;;;;;4988207;28;20033;-85
2021/10/14 04:59:06;;;;;;;4.47;4.07;;;14.30;79.90;;;;;;4988300;28;20057;-82
2021/10/14 05:01:32;;;;;;;4.70;4.30;;;14.30;79.90;;;;;;4987452;28;20489;-81
2021/10/14 05:03:58;;;;;;;4.88;4.47;;;14.30;80.00;;;;;;4985867;28;20394;-83
2021/10/14 05:06:24;;;;;;;8.77;4.60;;;14.30;80.00;;;;;;4988369;28;20121;-82
2021/10/14 05:08:50;;;;;;;5.60;5.07;;;14.20;79.80;;;;;;4987706;28;20443;-83
2021/10/14 05:11:16;;;;;;;5.63;5.00;;;14.20;79.90;;;;;;4987013;28;20125;-82
2021/10/14 05:13:42;;;;;;;5.18;4.63;;;14.30;80.10;;;;;;4985832;28;20054;-84
2021/10/14 05:16:08;;;;;;;4.97;4.55;;;14.30;80.10;;;;;;4987423;28;20275;-82
2021/10/14 05:18:34;;;;;;;5.47;4.97;;;14.20;80.00;;;;;;4987195;28;20104;-80
2021/10/14 05:21:00;;;;;;;5.25;4.75;;;14.20;80.00;;;;;;4985476;28;20089;-79
2021/10/14 05:23:26;;;;;;;5.00;4.40;;;14.20;80.00;;;;;;4987324;28;20125;-84
2021/10/14 05:25:52;;;;;;;6.63;4.95;;;14.20;80.00;;;;;;4999542;28;20124;-83
2021/10/14 05:28:18;;;;;;;5.65;5.15;;;14.20;80.00;;;;;;5013391;28;20126;-80
2021/10/14 05:30:45;;;;;;;4.97;4.57;;;14.20;80.00;;;;;;4986532;28;20045;-80
2021/10/14 05:33:11;;;;;;;5.70;5.05;;;14.20;80.10;;;;;;4986725;28;20077;-85
2021/10/14 05:35:37;;;;;;;5.25;4.20;;;14.20;80.10;;;;;;4986023;28;20065;-80
2021/10/14 05:38:04;;;;;;;5.28;4.88;;;14.10;79.90;;;;;;4976157;28;20117;-84
2021/10/14 05:40:30;;;;;;;6.10;4.60;;;14.10;79.90;;;;;;5007525;28;20093;-88
2021/10/14 05:42:56;;;;;;;4.75;4.35;;;14.20;80.10;;;;;;5008824;28;20281;-89
2021/10/14 05:45:22;;;;;;;5.15;4.47;;;14.20;80.10;;;;;;5007375;28;20052;-82
2021/10/14 05:47:48;;;;;;;4.65;4.25;;;14.10;79.90;;;;;;5016564;28;20061;-85
2021/10/14 05:50:14;;;;;;;5.70;5.20;;;14.20;80.10;;;;;;4998316;28;20644;-83
2021/10/14 05:52:40;;;;;;;5.20;4.70;;;14.20;80.10;;;;;;4992623;28;20129;-84
2021/10/14 05:55:07;;;;;;;5.28;4.78;;;14.10;80.00;;;;;;5007868;28;20030;-83
2021/10/14 05:57:33;;;;;;;5.18;4.68;;;14.10;80.00;;;;;;5006926;28;20063;-86
2021/10/14 05:59:58;;;;;;;5.22;4.82;;;14.10;80.00;;;;;;4993623;28;20065;-82
2021/10/14 06:02:24;;;;;;;5.07;4.65;;;14.10;80.00;;;;;;4989670;28;20097;-82
2021/10/14 06:04:50;;;;;;;5.90;4.65;;;14.20;80.20;;;;;;4992090;28;20034;-84
2021/10/14 06:07:17;;;;;;;4.93;4.53;;;14.10;80.00;;;;;;4991319;28;20071;-82
2021/10/14 06:09:44;;;;;;;5.75;5.25;;;14.10;80.00;;;;;;4990855;28;20041;-82
2021/10/14 06:12:12;;;;;;;5.63;5.07;;;14.10;80.00;;;;;;4990393;28;20045;-82
2021/10/14 06:14:38;;;;;;;5.65;4.78;;;14.10;80.00;;;;;;4989437;28;20516;-82
2021/10/14 06:17:04;;;;;;;5.00;4.60;;;14.20;80.20;;;;;;4990364;28;20104;-84
2021/10/14 06:19:30;;;;;;;4.88;4.47;;;14.10;80.00;;;;;;5000993;28;20110;-84
2021/10/14 06:21:56;;;;;;;5.20;4.70;;;14.10;80.00;;;;;;4990059;28;20026;-86
2021/10/14 06:24:22;;;;;;;5.13;4.72;;;14.10;80.00;;;;;;5005300;28;20030;-80
2021/10/14 06:26:48;;;;;;;5.65;5.15;;;14.10;80.00;;;;;;5009677;28;20420;-81
2021/10/14 06:29:14;;;;;;;5.15;4.72;;;14.10;80.00;;;;;;4993709;28;20034;-83
2021/10/14 06:31:40;;;;;;;5.68;5.18;;;14.10;79.90;;;;;;4990251;28;20043;-82
2021/10/14 06:34:06;;;;;;;5.72;5.22;;;14.10;79.90;;;;;;5002057;28;20030;-81
2021/10/14 06:36:32;;;;;;;4.82;4.43;;;14.10;79.90;;;;;;5009843;28;20061;-83
2021/10/14 06:38:58;;;;;;;4.90;4.50;;;14.10;79.90;;;;;;5009456;28;20033;-85
2021/10/14 06:41:24;;;;;;;5.22;4.72;;;14.10;79.80;;;;;;5009662;28;20061;-84
2021/10/14 06:43:50;;;;;;;5.10;4.60;;;14.10;79.90;;;;;;4997125;28;20062;-88
2021/10/14 06:46:16;;;;;;;5.80;5.20;;;14.10;79.90;;;;;;4989608;28;20042;-83
2021/10/14 06:48:42;;;;;;;6.40;4.95;;;14.10;79.90;;;;;;4987228;28;20046;-83
2021/10/14 06:51:08;;;;;;;6.22;4.68;;;14.10;79.80;;;;;;4989891;28;20054;-83
2021/10/14 06:53:34;;;;;;;7.85;6.30;;;14.10;79.70;;;;;;4988441;28;20197;-85
2021/10/14 06:56:01;;;;;;;6.30;5.70;;;14.10;79.40;;;;;;4990120;28;20026;-86
2021/10/14 06:58:27;;;;;;;7.55;6.53;;;14.10;79.30;;;;;;4990391;28;20196;-85
2021/10/14 07:00:53;;;;;;;6.03;5.43;;;14.00;79.20;;;;;;5004648;28;20428;-82
2021/10/14 07:03:19;;;;;;;6.75;6.15;;;14.10;79.40;;;;;;4989954;28;20556;-82
2021/10/14 07:05:45;;;;;;;6.57;4.90;;;14.00;79.20;;;;;;5003818;28;20386;-82
2021/10/14 07:08:11;;;;;;;6.30;5.25;;;14.00;79.20;;;;;;5003240;28;20034;-80
2021/10/14 07:10:38;;;;;;;6.97;5.70;;;14.00;79.10;;;;;;4989952;28;20026;-82
2021/10/14 07:13:05;;;;;;;7.72;5.25;;;14.00;79.10;;;;;;4993870;28;20061;-82
2021/10/14 07:15:32;;;;;;;5.68;4.85;;;14.00;79.10;;;;;;5008585;28;20487;-89
2021/10/14 07:17:59;;;;;;;6.38;5.28;;;14.00;79.10;;;;;;4997391;28;20033;-84
2021/10/14 07:20:25;;;;;;;7.15;6.10;;;14.00;79.10;;;;;;4996137;28;20025;-86
2021/10/14 07:22:51;;;;;;;6.70;5.70;;;14.00;79.10;;;;;;4992919;28;20026;-81
2021/10/14 07:25:17;;;;;;;6.30;5.75;;;14.00;79.00;;;;;;4996771;28;20048;-82
2021/10/14 07:27:44;;;;;;;6.13;5.53;;;14.00;79.00;;;;;;5005437;28;20108;-80
2021/10/14 07:30:10;;;;;;;5.40;4.90;;;14.00;78.90;;;;;;4988952;28;20045;-80
2021/10/14 07:32:37;;;;;;;6.57;5.53;;;14.00;78.90;;;;;;4989278;28;20061;-85
2021/10/14 07:35:04;;;;;;;6.60;5.82;;;14.00;79.00;;;;;;5000368;28;20109;-84
2021/10/14 07:37:31;;;;;;;7.68;5.88;;;13.90;78.80;;;;;;4981851;28;20549;-82
2021/10/14 07:39:57;;;;;;;7.00;6.30;;;14.00;79.00;;;;;;4984044;28;20383;-83
2021/10/14 07:42:23;;;;;;;6.95;6.25;;;13.90;78.80;;;;;;4987325;28;20026;-84
2021/10/14 07:44:50;;;;;;;6.35;5.35;;;13.90;78.70;;;;;;5004041;28;20034;-81
2021/10/14 07:47:16;;;;;;;7.55;5.68;;;13.90;78.70;;;;;;4987313;28;20533;-80
2021/10/14 07:49:43;;;;;;;7.47;6.43;;;13.90;78.70;;;;;;4984671;28;20214;-79
2021/10/14 07:52:09;;;;;;;8.40;6.32;;;13.90;78.70;;;;;;4986878;28;20049;-81
2021/10/14 07:54:35;;;;;;;12.35;6.28;;;13.90;78.90;;;;;;4999609;28;20029;-81
2021/10/14 07:57:01;;;;;;;10.98;7.15;;;13.90;79.30;;;;;;4987835;28;20049;-84
2021/10/14 07:59:27;;;;;;;7.93;6.90;;;14.00;79.90;;;;;;4988779;28;20028;-81
2021/10/14 08:01:53;;;;;;;10.13;7.40;;;14.10;80.40;;;;;;4994268;28;20030;-81
2021/10/14 08:04:19;;;;;;;10.27;7.22;;;14.20;80.70;;;;;;5000454;28;20034;-81
2021/10/14 08:06:45;;;;;;;8.05;6.93;;;14.20;80.70;;;;;;4998945;28;20044;-79
2021/10/14 08:09:11;;;;;;;7.72;6.93;;;14.20;80.50;;;;;;4992644;28;20030;-83
2021/10/14 08:11:37;;;;;;;8.00;7.03;;;14.30;80.70;;;;;;4985308;28;20489;-81
2021/10/14 08:14:03;;;;;;;9.05;8.07;;;14.30;80.80;;;;;;4987581;28;20330;-82
2021/10/14 08:16:29;;;;;;;9.73;7.63;;;14.40;80.90;;;;;;4989443;28;20536;-80
2021/10/14 08:18:56;;;;;;;8.15;7.00;;;14.40;81.00;;;;;;4988895;28;20491;-81
2021/10/14 08:21:21;;;;;;;10.75;7.32;;;14.50;81.20;;;;;;4982893;28;20056;-83
2021/10/14 08:23:47;;;;;;;7.60;6.90;;;14.50;81.20;;;;;;4985860;28;20034;-82
2021/10/14 08:26:13;;;;;;;10.05;7.35;;;14.60;81.40;;;;;;4987266;28;20022;-79
2021/10/14 08:28:39;;;;;;;7.30;6.65;;;14.70;81.50;;;;;;4986946;28;20552;-80
2021/10/14 08:31:05;;;;;;;7.72;6.88;;;14.70;81.50;;;;;;4987911;28;20401;-79
2021/10/14 08:33:31;;;;;;;9.68;7.30;;;14.80;81.60;;;;;;4991039;28;20281;-80
2021/10/14 08:35:57;;;;;;;8.43;7.43;;;14.80;81.50;;;;;;4979676;28;20023;-81
2021/10/14 08:38:23;;;;;;;12.65;8.35;;;14.90;82.10;;;;;;4986675;28;20385;-81
2021/10/14 08:40:51;;;;;;;8.68;7.10;;;15.00;81.70;;;;;;4986831;28;20031;-81
2021/10/14 08:43:18;;;;;;;9.13;7.60;;;15.00;81.70;;;;;;4987919;28;20125;-83
2021/10/14 08:45:48;;;;;;;8.10;7.10;;;15.10;81.80;;;;;;4988725;28;20152;-80
2021/10/14 08:48:15;;;;;;;7.38;6.68;;;15.20;81.90;;;;;;4988306;28;20228;-92
2021/10/14 08:50:43;;;;;;;9.70;7.20;;;15.30;81.90;;;;;;4986512;28;20046;-83
2021/10/14 08:53:10;;;;;;;8.23;7.05;;;15.40;81.80;;;;;;4986114;28;20034;-85
2021/10/14 08:55:38;;;;;;;6.95;6.28;;;15.50;82.40;;;;;;4988974;28;20035;-80
2021/10/14 08:58:08;;;;;;;8.35;7.00;;;15.50;81.60;;;;;;4988694;28;20478;-81
2021/10/14 09:00:36;;;;;;;7.78;7.00;;;15.60;81.50;;;;;;4987555;28;20085;-83
2021/10/14 09:03:31;;;;;;;8.13;6.85;;;15.70;81.50;;;;;;4990523;28;20089;-82
2021/10/14 09:05:58;;;;;;;7.72;6.15;;;15.80;81.50;;;;;;4993031;28;20040;-84
2021/10/14 09:08:47;;;;;;;9.13;6.97;;;15.80;81.40;;;;;;4998048;28;20105;-83
2021/10/14 09:11:17;;;;;;;9.30;7.50;;;15.80;81.20;;;;;;4986618;28;20048;-82
2021/10/14 09:13:50;;;;;;;7.18;6.07;;;15.90;81.30;;;;;;4996516;28;20029;-84
2021/10/14 09:16:38;;;;;;;8.23;6.82;;;15.90;81.20;;;;;;4998590;28;20035;-85
2021/10/14 09:19:13;;;;;;;7.80;6.22;;;16.00;81.20;;;;;;4984468;28;20278;-82
2021/10/14 09:21:40;;;;;;;8.00;7.20;;;16.00;81.10;;;;;;4987952;28;20027;-79
2021/10/14 09:24:22;;;;;;;9.05;6.78;;;16.10;81.20;;;;;;4985394;28;20033;-77
2021/10/14 09:26:48;;;;;;;8.45;7.13;;;16.10;81.10;;;;;;4968215;28;20035;-78
2021/10/14 09:29:14;;;;;;;7.63;6.82;;;16.10;81.10;;;;;;4988818;28;20040;-78
2021/10/14 09:31:49;;;;;;;9.48;6.75;;;16.20;81.20;;;;;;4987856;28;20042;-77
2021/10/14 09:34:35;;;;;;;7.38;6.43;;;16.20;81.10;;;;;;5001842;28;20061;-80
2021/10/14 09:37:14;;;;;;;23.90;7.72;;;16.30;81.20;;;;;;4975791;28;20034;-77
2021/10/14 09:39:58;;;;;;;7.80;7.10;;;16.30;81.60;;;;;;5001321;28;20126;-77
2021/10/14 09:42:53;;;;;;;8.35;7.28;;;16.30;81.00;;;;;;4988873;28;20042;-78
2021/10/14 09:45:30;;;;;;;7.18;6.35;;;16.40;81.10;;;;;;4982872;28;20394;-76
2021/10/14 09:48:07;;;;;;;10.23;8.23;;;16.40;81.00;;;;;;4972974;28;20101;-77
2021/10/14 09:50:42;;;;;;;6.47;5.82;;;16.50;81.10;;;;;;4987794;28;20035;-76
2021/10/14 09:53:14;;;;;;;7.70;7.00;;;16.40;80.90;;;;;;4980484;28;20050;-84
2021/10/14 09:55:40;;;;;;;7.20;6.50;;;16.50;81.00;;;;;;4956383;28;20027;-79
2021/10/14 09:58:07;;;;;;;7.15;6.45;;;16.50;80.90;;;;;;4991844;28;20093;-80
2021/10/14 10:00:35;;;;;;;6.82;6.22;;;16.50;80.80;;;;;;5001156;28;20109;-80
2021/10/14 10:03:03;;;;;;;7.03;6.15;;;16.50;80.80;;;;;;4986535;28;20647;-82
2021/10/14 10:05:30;;;;;;;6.47;5.88;;;16.50;80.70;;;;;;4969864;28;20051;-80
2021/10/14 10:07:58;;;;;;;6.28;5.70;;;16.50;80.70;;;;;;4980057;28;20069;-80
2021/10/14 10:10:27;;;;;;;7.00;6.10;;;16.50;80.70;;;;;;4985255;28;20129;-80
2021/10/14 10:12:56;;;;;;;7.95;6.47;;;16.50;80.60;;;;;;4986842;28;20391;-80
2021/10/14 10:15:44;;;;;;;7.10;6.38;;;16.60;80.70;;;;;;4987562;28;20054;-80
2021/10/14 10:18:28;;;;;;;8.60;5.80;;;16.60;80.60;;;;;;4986945;28;20043;-80
2021/10/14 10:21:06;;;;;;;6.35;5.55;;;16.60;80.60;;;;;;4987789;28;20030;-80
2021/10/14 10:23:53;;;;;;;6.22;5.70;;;16.60;80.50;;;;;;4990565;28;20177;-81
2021/10/14 10:26:35;;;;;;;7.85;5.38;;;16.60;80.50;;;;;;5001721;28;20029;-82
2021/10/14 10:29:13;;;;;;;6.50;5.85;;;16.70;80.60;;;;;;4994435;28;20080;-84
2021/10/14 10:32:09;;;;;;;6.82;6.22;;;16.70;80.50;;;;;;4987387;28;20078;-81
2021/10/14 10:37:34;;;;;;;6.20;5.60;;;16.80;80.60;;;;;;4982941;28;20478;-77
2021/10/14 10:40:17;;;;;;;9.10;6.93;;;16.80;80.50;;;;;;5001722;28;20110;-77
2021/10/14 10:42:58;;;;;;;5.55;4.88;;;16.80;80.40;;;;;;4984582;28;20061;-78
2021/10/14 10:45:27;;;;;;;5.82;5.28;;;16.90;80.50;;;;;;5002229;28;20200;-77
2021/10/14 10:47:53;;;;;;;6.53;5.93;;;17.00;80.50;;;;;;5003776;28;20043;-79
2021/10/14 10:50:29;;;;;;;7.18;5.85;;;17.00;80.40;;;;;;5002188;28;20473;-77
2021/10/14 10:53:17;;;;;;;6.90;6.18;;;17.10;80.40;;;;;;4997862;28;20145;-84
2021/10/14 10:55:56;;;;;;;5.85;5.43;;;17.20;80.50;;;;;;4992367;28;20458;-78
2021/10/14 10:58:31;;;;;;;5.38;4.68;;;17.20;80.20;;;;;;5001863;28;20025;-78
2021/10/14 11:00:58;;;;;;;5.20;4.43;;;17.30;80.30;;;;;;4993959;28;20434;-77
2021/10/14 11:03:28;;;;;;;6.70;5.18;;;17.40;80.30;;;;;;5004190;28;20026;-77
2021/10/14 11:05:59;;;;;;;6.28;5.22;;;17.50;80.30;;;;;;5009128;28;20026;-78
2021/10/14 11:08:33;;;;;;;8.50;6.10;;;17.60;80.30;;;;;;5000959;28;20026;-77
2021/10/14 11:11:06;;;;;;;9.18;5.28;;;17.70;80.50;;;;;;4989042;28;20014;-78
2021/10/14 11:13:33;;;;;;;;;;;17.80;80.80;;;;;;4989393;28;20026;-80
2021/10/14 11:15:59;;;;;;;7.30;5.05;;;18.00;81.00;;;;;;4988471;28;20384;-77
2021/10/14 11:18:27;;;;;;;8.23;5.07;;;18.00;80.80;;;;;;4990632;28;22022;-77
2021/10/14 11:20:59;;;;;;;8.45;4.85;;;18.20;80.90;;;;;;4996454;28;20084;-77
2021/10/14 11:23:31;;;;;;;6.97;5.35;;;18.40;81.00;;;;;;4991963;28;20026;-77
2021/10/14 11:26:07;;;;;;;7.50;4.93;;;18.50;80.80;;;;;;4988003;28;20027;-76
2021/10/14 11:28:52;;;;;;;6.88;4.07;;;18.70;80.70;;;;;;4988588;28;20550;-77
2021/10/14 11:31:42;;;;;;;5.00;4.20;;;18.90;80.40;;;;;;4988367;28;20038;-77
2021/10/14 11:34:21;;;;;;;8.50;4.90;;;19.00;80.10;;;;;;4989914;28;20512;-76
2021/10/14 11:36:49;;;;;;;12.60;6.07;;;19.20;80.20;;;;;;4988031;28;20027;-76
2021/10/14 11:39:17;;;;;;;6.40;5.00;;;19.30;80.00;;;;;;4990563;28;20121;-75
2021/10/14 11:41:43;;;;;;;6.13;4.30;;;19.50;79.80;;;;;;5005242;28;20039;-75
2021/10/14 11:44:11;;;;;;;5.72;4.18;;;19.60;79.60;;;;;;4996690;28;20033;-75
2021/10/14 11:46:39;;;;;;;5.20;3.75;;;19.60;79.20;;;;;;4988215;28;20078;-75
2021/10/14 11:49:08;;;;;;;7.47;5.03;;;19.70;78.80;;;;;;4988777;28;20030;-74
2021/10/14 11:51:35;;;;;;;4.47;4.00;;;19.80;79.10;;;;;;4989349;28;20111;-76
2021/10/14 11:54:05;;;;;;;6.65;3.63;;;19.80;78.20;;;;;;5009257;28;20420;-77
2021/10/14 11:56:42;;;;;;;8.02;3.15;;;19.80;77.70;;;;;;5008611;28;20034;-76
2021/10/14 11:59:08;;;;;;;3.42;2.80;;;19.90;77.50;;;;;;4996479;28;20685;-77
2021/10/14 12:01:45;;;;;;;5.15;2.50;;;19.90;77.10;;;;;;5001178;28;20048;-77
2021/10/14 12:04:12;;;;;;;4.35;2.58;;;20.00;76.60;;;;;;4988963;28;20061;-77
2021/10/14 12:06:40;;;;;;;4.53;2.85;;;20.00;76.40;;;;;;4989840;28;20038;-79
2021/10/14 12:09:07;;;;;;;4.15;2.80;;;20.10;76.40;;;;;;5000870;28;20078;-77
2021/10/14 12:11:33;;;;;;;3.72;2.45;;;20.10;76.00;;;;;;4998173;28;20041;-77
2021/10/14 12:14:02;;;;;;;3.90;2.10;;;20.10;75.70;;;;;;4998016;28;20725;-76
2021/10/14 12:16:30;;;;;;;6.45;2.30;;;20.20;75.40;;;;;;4986843;28;20617;-76
2021/10/14 12:19:18;;;;;;;2.55;2.35;;;20.20;74.80;;;;;;4986227;28;20509;-77
2021/10/14 12:21:46;;;;;;;3.75;2.30;;;20.20;74.20;;;;;;4986394;28;20034;-76
2021/10/14 12:24:18;;;;;;;2.55;1.80;;;20.30;74.30;;;;;;4985570;28;20085;-76
2021/10/14 12:26:53;;;;;;;4.28;2.47;;;20.30;74.10;;;;;;4966520;28;20041;-75
2021/10/14 12:29:40;;;;;;;3.60;1.70;;;20.30;73.50;;;;;;4996432;28;20046;-76
2021/10/14 12:32:26;;;;;;;2.25;2.05;;;20.40;73.50;;;;;;4986113;28;20049;-76
2021/10/14 12:34:55;;;;;;;3.10;2.08;;;20.40;73.10;;;;;;4993345;28;20497;-77
2021/10/14 12:37:29;;;;;;;3.17;1.98;;;20.40;73.10;;;;;;4988478;28;20491;-76
2021/10/14 12:40:15;;;;;;;2.90;1.88;;;20.50;72.80;;;;;;4968223;28;20121;-78
2021/10/14 12:42:50;;;;;;;3.20;1.67;;;20.60;72.60;;;;;;4968309;28;20034;-77
2021/10/14 12:45:33;;;;;;;3.47;2.53;;;20.60;72.40;;;;;;5001615;28;20456;-77
2021/10/14 12:48:13;;;;;;;4.67;2.10;;;20.60;71.90;;;;;;4985746;28;20132;-78
2021/10/14 12:50:56;;;;;;;3.33;1.73;;;20.70;71.70;;;;;;4983300;28;20041;-77
2021/10/14 12:53:22;;;;;;;2.78;1.52;;;20.70;71.40;;;;;;4986838;28;20045;-78
2021/10/14 12:56:02;;;;;;;2.45;1.83;;;20.70;71.40;;;;;;4988081;28;20488;-76
2021/10/14 12:58:28;;;;;;;3.05;1.80;;;20.70;70.90;;;;;;5002334;28;20119;-75